• Join FlightAware (Why Join?)
  • Login
  • US Flag 
05:57AM EDT


 

Airport Tracker/Info


-or-


 

Live Flight TrackerFlight Track Log ✈ FSR15 ✈ 21-Jul-2013 ✈ KMDW - KPHL

Flight Track Log - Related Links

Times and Time Zones

All times are in EDT time to prevent confusion due to time zone crossing. See the FSR15 flight status page for this flight to view local times or setup timezone preferences in your user account.

Time Position Orientation Groundspeed Altitude Reporting Facility
EDT Latitude Longitude Course Direction KTS MPH feet Rate Location/Type
01:10PM 41.8000 -87.7167 56° Northeast 190 219 1,800  Level Chicago TRACON
01:10PM 41.8117 -87.6936 56° Northeast 210 242 2,800 2,100 Climbing Chicago Center
01:11PM 41.8189 -87.5956 84° East 249 287 5,200 2,880 Climbing Chicago Center
01:13PM 41.8197 -87.4661 89° East 281 323 8,800 3,480 Climbing Chicago Center
01:14PM 41.7992 -87.3503 103° East 313 360 12,500 3,360 Climbing Chicago Center
01:15PM 41.7822 -87.2231 100° East 338 389 15,800 3,120 Climbing Chicago Center
01:17PM 41.7633 -86.9156 95° East 425 489 22,200 3,000 Climbing Chicago Center
01:18PM 41.7656 -86.7506 89° East 441 507 25,200 2,700 Climbing Chicago Center
01:19PM 41.7667 -86.5844 89° East 442 509 27,900 2,460 Climbing Chicago Center
01:20PM 41.7664 -86.3825 90° East 451 519 30,300 1,800 Climbing Chicago Center
01:21PM 41.7689 -86.2069 89° East 468 539 31,700 1,140 Climbing Chicago Center
01:22PM 41.7706 -86.0236 89° East 489 563 32,700 960 Climbing Chicago Center
01:23PM 41.7708 -85.8342 90° East 505 581 33,700 1,140 Climbing Chicago Center
01:24PM 41.7642 -85.6439 93° East 509 586 35,100 1,500 Climbing Chicago Center
01:25PM 41.7578 -85.4492 92° East 508 585 36,800 1,740 Climbing Chicago Center
01:26PM 41.7497 -85.2597 93° East 500 575 38,700 1,620 Climbing Chicago Center
01:27PM 41.7431 -85.0783 93° East 489 563 40,200 1,080 Climbing Chicago Center
01:28PM 41.7333 -84.8644 93° East 481 554 41,000 360 Climbing Chicago Center
01:29PM 41.7250 -84.6778 93° East 499 574 41,000  Level Chicago Center
01:30PM 41.7172 -84.4889 93° East 506 582 41,000  Level Chicago Center
01:31PM 41.7289 -84.2992 85° East 512 589 41,000  Level Chicago Center
01:32PM 41.7422 -84.1100 85° East 512 589 41,000  Level Chicago Center
01:33PM 41.7569 -83.9206 84° East 513 590 41,000  Level Chicago Center
01:34PM 41.7764 -83.6931 83° East 514 592 41,000  Level Chicago Center
01:35PM 41.7867 -83.5211 85° East 503 579 41,000  Level Cleveland Center
01:36PM 41.8039 -83.3325 83° East 503 579 41,000  Level Cleveland Center
01:37PM 41.8214 -83.1189 84° East 516 594 41,000  Level Cleveland Center
01:38PM 41.8025 -82.9342 98° East 502 578 41,000  Level Cleveland Center
01:39PM 41.7389 -82.7733 118° Southeast 482 555 41,000  Level Cleveland Center
01:40PM 41.6817 -82.6044 114° Southeast 487 560 41,000  Level Cleveland Center
01:41PM 41.6239 -82.4386 115° Southeast 493 567 41,000  Level Cleveland Center
01:42PM 41.5642 -82.2650 115° Southeast 498 573 41,000  Level Cleveland Center
01:43PM 41.5119 -82.1167 115° Southeast 498 573 41,000  Level Cleveland Center
01:44PM 41.4536 -81.9517 115° Southeast 493 567 41,000  Level Cleveland Center
01:45PM 41.4011 -81.7983 114° Southeast 488 562 41,000  Level Cleveland Center
01:46PM 41.3361 -81.6092 115° Southeast 494 568 41,000  Level Cleveland Center
01:47PM 41.2772 -81.4453 116° Southeast 494 568 41,000  Level Cleveland Center
01:48PM 41.2097 -81.2622 116° Southeast 499 574 41,000  Level Cleveland Center
01:49PM 41.1500 -81.0989 116° Southeast 488 562 41,000  Level Cleveland Center
01:50PM 41.1006 -80.9522 114° Southeast 488 562 41,000  Level Cleveland Center
01:51PM 41.0406 -80.7894 116° Southeast 483 556 41,000  Level Cleveland Center
01:52PM 40.9739 -80.6133 117° Southeast 483 556 41,000  Level Cleveland Center
01:53PM 40.9156 -80.4511 115° Southeast 483 556 41,000  Level Cleveland Center
01:54PM 40.8589 -80.3114 118° Southeast 483 556 41,000  Level Cleveland Center
01:55PM 40.8000 -80.1497 116° Southeast 483 556 41,000  Level Cleveland Center
01:56PM 40.7367 -79.9667 114° Southeast 483 556 41,000  Level Cleveland Center
01:57PM 40.6794 -79.8028 115° Southeast 490 564 41,000  Level Cleveland Center
01:58PM 40.6178 -79.6394 116° Southeast 490 564 41,000 -300 Level Cleveland Center
01:59PM 40.5600 -79.4817 116° Southeast 485 558 40,500 -1,080 Descending Cleveland Center
02:00PM 40.5000 -79.3189 116° Southeast 485 558 38,900 -1,680 Descending Cleveland Center
02:01PM 40.4356 -79.1592 118° Southeast 485 558 37,200 -1,740 Descending Cleveland Center
02:02PM 40.3772 -78.9969 115° Southeast 485 558 35,500 -1,740 Descending Cleveland Center
02:03PM 40.3600 -78.8203 97° East 481 554 33,800 -1,920 Descending Cleveland Center
02:04PM 40.3569 -78.6350 91° East 493 567 31,700 -2,160 Descending Cleveland Center
02:05PM 40.3517 -78.4500 92° East 499 574 29,500 -1,980 Descending Cleveland Center
02:08PM 40.3375 -78.0119 92° East 502 578 25,100 -1,380 Descending New York Center
02:09PM 40.3317 -77.8317 92° East 502 578 25,000 -60 Descending New York Center
02:10PM 40.3239 -77.6483 93° East 502 578 25,000 -60 Level New York Center
02:11PM 40.3194 -77.4708 92° East 497 572 24,900 -840 Descending New York Center
02:12PM 40.3117 -77.3094 94° East 497 572 23,300 -1,560 Descending New York Center
02:13PM 40.3025 -77.1344 94° East 497 572 21,800 -1,560 Descending New York Center
02:14PM 40.2781 -76.9661 101° East 484 557 20,300 -1,560 Descending New York Center
02:15PM 40.2492 -76.8031 103° East 467 537 18,700 -1,860 Descending New York Center
02:16PM 40.2222 -76.6319 102° East 452 520 16,700 -1,980 Descending New York Center
02:17PM 40.2006 -76.4781 100° East 438 504 14,900 -1,680 Descending New York Center
02:18PM 40.1764 -76.3319 102° East 425 489 13,400 -960 Descending New York Center
02:19PM 40.1550 -76.2081 103° East 406 467 13,000 -660 Descending New York Center
02:20PM 40.1344 -76.0625 100° East 374 430 12,100 -1,320 Descending New York Center
02:21PM 40.1167 -75.9497 102° East 336 387 10,400 -1,560 Descending New York Center
02:22PM 40.1000 -75.8536 103° East 315 362 9,000 -1,200 Descending New York Center
02:23PM 40.0814 -75.7492 103° East 303 349 8,000 -1,080 Descending New York Center
02:24PM 40.0811 -75.6542 90° East 278 320 6,900 -960 Descending New York Center
02:25PM 40.0869 -75.5678 85° East 254 292 6,100 -540 Descending New York Center
02:26PM 40.1067 -75.4878 72° East 241 277 5,900 -120 Descending New York Center
02:27PM 40.1350 -75.4053 66° East 236 272 5,900  Level New York Center
02:28PM 40.1608 -75.3283 66° East 236 272 5,900 -120 Level New York Center
02:29PM 40.1153 -75.2711 136° Southeast 187 215 5,700 -600 Descending New York Center
02:30PM 40.0625 -75.2325 151° Southeast 193 222 4,700 -840 Descending New York Center
02:31PM 40.0092 -75.2100 162° South 193 222 4,000 -420 Descending New York Center
02:32PM 39.9600 -75.1881 161° South 193 222 3,900  Descending New York Center
02:33PM 39.9047 -75.1628 161° South 193 222 4,000 -180 Climbing New York Center
02:33PM 39.8667 -75.1500 166° South 201 231 3,700 -900 Descending Philadelphia TRACON
02:34PM 39.8167 -75.1333 166° South 195 224 2,600 -1,080 Descending Philadelphia TRACON
02:35PM 39.8000 -75.1667 237° Southwest 180 207 1,600 -900 Descending Philadelphia TRACON
02:36PM 39.8333 -75.2167 311° West 144 166 800 -840 Descending Philadelphia TRACON
02:38PM 39.8667 -75.2333 113° Southeast  Level FlightAware Approximate
02:45PM 39.8722 -75.2409 113° Southeast  Level Estimated